createdAt,value
2018-12-01T00:02:15.646Z,15.00
2018-12-01T00:07:24.200Z,14.10
2018-12-01T00:12:28.087Z,13.63
2018-12-01T00:17:36.902Z,14.20
2018-12-01T00:22:45.544Z,14.87
2018-12-01T00:27:50.024Z,14.60
2018-12-01T00:32:58.901Z,14.43
2018-12-01T00:38:07.638Z,14.93
2018-12-01T00:43:14.530Z,13.67
2018-12-01T00:48:20.596Z,14.00
2018-12-01T00:53:26.573Z,14.37
2018-12-01T00:58:30.382Z,13.50
2018-12-01T01:03:36.310Z,13.00
2018-12-01T01:08:42.239Z,12.80
2018-12-01T01:13:49.006Z,14.17
2018-12-01T01:18:54.952Z,14.33
2018-12-01T01:23:57.950Z,13.77
2018-12-01T01:29:06.797Z,14.80
2018-12-01T01:34:15.514Z,14.37
2018-12-01T01:39:24.348Z,13.73
2018-12-01T01:44:30.193Z,14.67
2018-12-01T01:49:33.078Z,14.20
2018-12-01T01:54:35.947Z,14.60
2018-12-01T01:59:39.543Z,14.70
2018-12-01T02:04:42.506Z,15.20
2018-12-01T02:09:51.141Z,15.13
2018-12-01T02:14:58.130Z,14.53
2018-12-01T02:20:08.134Z,15.60
2018-12-01T02:25:21.250Z,16.30
2018-12-01T02:30:26.157Z,16.73
2018-12-01T02:35:32.153Z,16.13
2018-12-01T02:40:36.182Z,16.83
2018-12-01T02:45:52.269Z,15.47
2018-12-01T02:50:55.319Z,16.20
2018-12-01T02:56:04.266Z,15.60
2018-12-01T03:01:12.817Z,16.43
2018-12-01T03:06:16.570Z,17.07
2018-12-01T03:11:20.097Z,17.00
2018-12-01T03:16:25.967Z,17.03
2018-12-01T03:21:34.798Z,17.83
2018-12-01T03:26:38.618Z,16.07
2018-12-01T03:31:41.531Z,17.53
2018-12-01T03:36:44.439Z,15.80
2018-12-01T03:41:51.215Z,16.60
2018-12-01T03:46:54.544Z,16.33
2018-12-01T03:51:59.121Z,15.63
2018-12-01T03:57:02.221Z,16.83
2018-12-01T04:02:09.502Z,17.20
2018-12-01T04:07:12.444Z,15.97
2018-12-01T04:12:15.386Z,15.83
2018-12-01T04:17:21.273Z,16.73
2018-12-01T04:22:26.068Z,15.53
2018-12-01T04:27:29.077Z,17.47
2018-12-01T04:32:32.117Z,16.70
2018-12-01T04:37:38.034Z,16.27
2018-12-01T04:42:41.050Z,18.30
2018-12-01T04:47:45.066Z,16.80
2018-12-01T04:52:51.690Z,16.57
2018-12-01T04:58:00.466Z,17.70
2018-12-01T05:03:06.426Z,16.87
2018-12-01T05:08:12.306Z,17.30
2018-12-01T05:13:16.133Z,16.83
2018-12-01T05:18:19.525Z,17.10
2018-12-01T05:23:28.138Z,15.83
2018-12-01T05:28:35.790Z,16.77
2018-12-01T05:33:43.750Z,17.50
2018-12-01T05:38:46.760Z,16.43
2018-12-01T05:43:49.713Z,16.07
2018-12-01T05:48:52.698Z,15.77
2018-12-01T05:53:55.624Z,16.57
2018-12-01T05:58:58.579Z,16.10
2018-12-01T06:04:07.814Z,16.37
2018-12-01T06:09:13.938Z,17.17
2018-12-01T06:14:22.702Z,16.50
2018-12-01T06:19:25.743Z,15.80
2018-12-01T06:24:29.274Z,16.90
2018-12-01T06:29:32.655Z,17.47
2018-12-01T06:34:39.049Z,17.33
2018-12-01T06:39:45.260Z,16.47
2018-12-01T06:44:51.150Z,16.03
2018-12-01T06:49:54.136Z,16.33
2018-12-01T06:55:00.419Z,17.07
2018-12-01T07:00:09.606Z,16.73
2018-12-01T07:05:13.830Z,16.07
2018-12-01T07:10:20.674Z,16.27
2018-12-01T07:15:31.786Z,15.03
2018-12-01T07:20:35.699Z,16.63
2018-12-01T07:25:41.485Z,16.50
2018-12-01T07:30:45.158Z,17.33
2018-12-01T07:35:53.149Z,16.73
2018-12-01T07:40:56.161Z,16.97
2018-12-01T07:45:58.940Z,16.87
2018-12-01T07:51:03.645Z,18.33
2018-12-01T07:56:08.275Z,15.83
2018-12-01T08:01:11.655Z,17.03
2018-12-01T08:06:27.311Z,15.57
2018-12-01T08:11:30.768Z,15.90
2018-12-01T08:16:34.230Z,15.53
2018-12-01T08:21:40.068Z,16.03
2018-12-01T08:26:42.983Z,16.80
2018-12-01T13:42:38.314Z,19.47
2018-12-01T13:47:43.517Z,31.50
2018-12-01T13:52:56.183Z,21.50
2018-12-01T13:57:59.187Z,20.67
2018-12-01T14:03:03.950Z,17.77
2018-12-01T14:08:07.454Z,20.50
2018-12-01T14:13:13.970Z,19.93
2018-12-01T14:18:16.818Z,18.63
2018-12-01T14:23:21.978Z,19.03
2018-12-01T14:28:29.491Z,21.13
2018-12-01T14:33:33.514Z,17.93
2018-12-01T14:38:38.279Z,17.63
2018-12-01T14:43:44.210Z,17.77
2018-12-01T14:48:47.895Z,17.07
2018-12-01T14:53:52.557Z,19.30
2018-12-01T14:58:57.392Z,17.73
2018-12-01T15:04:01.115Z,16.93
2018-12-01T15:09:08.366Z,18.83
2018-12-01T15:14:11.267Z,17.57
2018-12-01T15:19:14.348Z,16.63
2018-12-01T15:24:18.397Z,17.00
2018-12-01T15:29:22.892Z,16.63
2018-12-01T15:34:28.818Z,16.10
2018-12-01T15:39:32.592Z,16.37
2018-12-01T15:44:39.529Z,18.80
2018-12-01T15:49:43.518Z,17.87
2018-12-01T15:54:46.876Z,17.47
2018-12-01T15:59:49.787Z,16.30
2018-12-01T16:04:52.726Z,14.53
2018-12-01T16:09:58.707Z,18.47
2018-12-01T16:15:02.707Z,16.43
2018-12-01T16:20:11.731Z,27.40
2018-12-01T16:25:17.221Z,18.93
2018-12-01T16:30:23.488Z,19.13
2018-12-01T16:35:27.050Z,19.47
2018-12-01T16:40:45.805Z,17.33
2018-12-01T16:45:52.210Z,16.53
2018-12-01T16:51:00.076Z,18.87
2018-12-01T16:56:04.357Z,15.67
2018-12-01T17:01:07.939Z,15.23
2018-12-01T17:06:14.749Z,16.37
2018-12-01T17:11:18.611Z,15.37
2018-12-01T17:16:21.546Z,15.67
2018-12-01T17:21:27.364Z,16.80
2018-12-01T17:26:33.356Z,17.50
2018-12-01T17:31:37.131Z,16.43
2018-12-01T17:36:45.067Z,15.97
2018-12-01T17:41:52.119Z,15.53
2018-12-01T17:46:56.358Z,15.53
2018-12-01T17:51:59.377Z,15.03
2018-12-01T17:57:02.890Z,16.53
2018-12-01T18:02:06.139Z,18.87
2018-12-01T18:07:10.048Z,18.27
2018-12-01T18:12:16.454Z,16.27
2018-12-01T18:17:19.528Z,15.73
2018-12-01T18:22:23.054Z,14.97
2018-12-01T18:27:27.492Z,14.53
2018-12-01T18:32:31.130Z,15.83
2018-12-01T18:37:34.303Z,13.87
2018-12-01T18:42:43.286Z,16.43
2018-12-01T18:47:46.722Z,14.53
2018-12-01T18:52:56.697Z,13.47
2018-12-01T18:58:00.567Z,13.30
2018-12-01T19:03:04.584Z,14.90
2018-12-01T19:08:09.189Z,14.57
2018-12-01T19:13:13.051Z,15.13
2018-12-01T19:18:17.160Z,14.43
2018-12-01T19:23:20.331Z,14.53
2018-12-01T19:28:24.155Z,13.47
2018-12-01T19:33:28.062Z,14.70
2018-12-01T19:38:33.914Z,15.07
2018-12-01T19:43:38.906Z,13.47
2018-12-01T19:48:47.643Z,13.73
2018-12-01T19:53:56.486Z,13.53
2018-12-01T19:59:03.205Z,11.97
2018-12-01T20:04:07.205Z,12.20
2018-12-01T20:09:16.153Z,20.13
2018-12-01T20:14:23.682Z,20.87
2018-12-01T20:19:27.675Z,28.50
2018-12-01T20:24:31.619Z,15.10
2018-12-01T20:29:37.783Z,12.27
2018-12-01T20:34:41.536Z,13.27
2018-12-01T20:39:46.017Z,10.40
2018-12-01T20:44:54.693Z,10.40
2018-12-01T20:49:58.142Z,11.07
2018-12-01T20:55:02.078Z,12.53
2018-12-01T21:00:08.078Z,12.57
2018-12-01T21:05:19.120Z,11.43
2018-12-01T21:10:28.950Z,13.00
2018-12-01T21:15:33.681Z,11.83
2018-12-01T21:20:36.727Z,12.43
2018-12-01T21:25:39.591Z,10.47
2018-12-01T21:30:48.791Z,12.00
2018-12-01T21:35:52.322Z,11.60
2018-12-01T21:40:58.135Z,11.37
2018-12-01T21:46:06.939Z,11.70
2018-12-01T21:51:11.759Z,11.07
2018-12-01T21:56:15.758Z,9.97
2018-12-01T22:01:24.354Z,12.10
2018-12-01T22:06:28.209Z,11.00
2018-12-01T22:11:31.691Z,10.07
2018-12-01T22:16:40.426Z,10.70
2018-12-01T22:21:49.636Z,10.73
2018-12-01T22:26:55.615Z,9.53
2018-12-01T22:32:03.170Z,10.27
2018-12-01T22:37:06.143Z,9.97
2018-12-01T22:42:14.867Z,10.53
2018-12-01T22:47:23.721Z,10.23
2018-12-01T22:52:29.771Z,8.57
2018-12-01T22:57:35.870Z,9.60
2018-12-01T23:02:41.901Z,9.63
2018-12-01T23:07:50.755Z,8.83
2018-12-01T23:12:57.748Z,9.73
2018-12-01T23:18:06.404Z,9.87
2018-12-01T23:23:09.376Z,9.87
2018-12-01T23:28:17.972Z,9.53
2018-12-01T23:33:27.630Z,11.03
2018-12-01T23:38:31.332Z,11.03
2018-12-01T23:43:37.309Z,10.63
2018-12-01T23:48:41.203Z,8.93
2018-12-01T23:53:49.936Z,9.63
2018-12-01T23:58:53.215Z,9.60
